createdAt,value
2023-03-13T00:00:40.658Z,2.40
2023-03-13T00:02:45.610Z,2.53
2023-03-13T00:04:47.317Z,3.17
2023-03-13T00:06:49.016Z,2.25
2023-03-13T00:08:50.707Z,4.35
2023-03-13T00:10:52.370Z,4.30
2023-03-13T00:12:53.992Z,2.92
2023-03-13T00:14:55.607Z,2.72
2023-03-13T00:16:57.463Z,1.92
2023-03-13T00:18:59.208Z,2.25
2023-03-13T00:21:09.873Z,3.40
2023-03-13T00:23:11.503Z,2.15
2023-03-13T00:25:13.172Z,2.70
2023-03-13T00:27:14.830Z,2.13
2023-03-13T00:29:16.439Z,1.75
2023-03-13T00:31:19.683Z,1.52
2023-03-13T00:33:21.396Z,1.98
2023-03-13T00:35:23.095Z,2.15
2023-03-13T00:37:24.799Z,1.73
2023-03-13T00:39:26.406Z,2.00
2023-03-13T00:41:32.491Z,2.70
2023-03-13T00:43:34.831Z,2.22
2023-03-13T00:45:36.477Z,2.97
2023-03-13T00:47:38.122Z,1.95
2023-03-13T00:49:39.763Z,2.00
2023-03-13T00:51:44.063Z,2.05
2023-03-13T00:53:45.789Z,1.80
2023-03-13T00:55:53.876Z,1.73
2023-03-13T00:57:55.484Z,2.22
2023-03-13T00:59:57.074Z,2.28
2023-03-13T01:01:58.726Z,2.00
2023-03-13T01:04:11.768Z,2.50
2023-03-13T01:06:16.145Z,2.90
2023-03-13T01:08:17.784Z,1.80
2023-03-13T01:10:19.437Z,2.55
2023-03-13T01:12:21.095Z,1.23
2023-03-13T01:14:22.719Z,2.55
2023-03-13T01:16:24.973Z,1.77
2023-03-13T01:18:26.604Z,2.90
2023-03-13T01:20:29.986Z,2.03
2023-03-13T01:22:31.629Z,2.88
2023-03-13T01:24:33.207Z,2.50
2023-03-13T01:26:34.877Z,1.60
2023-03-13T01:28:37.281Z,1.30
2023-03-13T01:30:38.881Z,1.30
2023-03-13T01:32:40.612Z,1.77
2023-03-13T01:34:42.265Z,1.38
2023-03-13T01:36:44.329Z,1.70
2023-03-13T01:38:54.380Z,1.60
2023-03-13T01:40:55.988Z,1.90
2023-03-13T01:43:00.188Z,1.67
2023-03-13T01:45:01.786Z,1.63
2023-03-13T01:47:06.174Z,1.83
2023-03-13T01:49:21.039Z,2.25
2023-03-13T01:51:51.059Z,1.63
2023-03-13T01:54:17.380Z,1.95
2023-03-13T01:56:24.418Z,1.33
2023-03-13T01:58:27.045Z,1.63
2023-03-13T02:00:32.494Z,2.10
2023-03-13T02:02:35.015Z,1.67
2023-03-13T02:04:40.011Z,1.70
2023-03-13T02:06:44.253Z,1.70
2023-03-13T02:09:01.316Z,1.50
2023-03-13T02:11:14.179Z,2.00
2023-03-13T02:13:17.445Z,1.80
2023-03-13T02:15:20.988Z,1.67
2023-03-13T02:17:22.842Z,1.60
2023-03-13T02:19:33.336Z,1.60
2023-03-13T02:21:46.753Z,1.70
2023-03-13T02:23:59.199Z,1.17
2023-03-13T02:26:01.415Z,2.00
2023-03-13T02:28:33.401Z,1.65
2023-03-13T02:30:35.250Z,1.55
2023-03-13T02:32:37.289Z,1.80
2023-03-13T02:34:40.564Z,1.95
2023-03-13T02:36:42.986Z,1.85
2023-03-13T02:38:51.956Z,1.77
2023-03-13T02:40:53.931Z,1.27
2023-03-13T02:42:56.813Z,2.00
2023-03-13T02:44:58.503Z,1.50
2023-03-13T02:47:00.259Z,1.52
2023-03-13T02:49:19.771Z,1.90
2023-03-13T02:51:36.735Z,1.30
2023-03-13T02:53:38.440Z,1.20
2023-03-13T02:55:42.023Z,1.13
2023-03-13T02:57:44.441Z,1.20
2023-03-13T02:59:46.067Z,1.10
2023-03-13T03:01:47.652Z,0.80
2023-03-13T03:03:49.393Z,1.00
2023-03-13T03:05:50.999Z,1.00
2023-03-13T03:11:14.605Z,1.00
2023-03-13T03:13:16.242Z,0.80
2023-03-13T03:15:17.960Z,1.00
2023-03-13T03:17:19.576Z,1.00
2023-03-13T03:19:21.151Z,1.00
2023-03-13T03:21:23.955Z,1.08
2023-03-13T03:23:25.579Z,1.40
2023-03-13T03:25:27.199Z,1.30
2023-03-13T03:27:28.817Z,1.02
2023-03-13T03:29:30.407Z,1.10
2023-03-13T03:31:32.032Z,1.15
2023-03-13T03:33:33.723Z,1.10
2023-03-13T03:35:38.545Z,1.55
2023-03-13T03:37:40.246Z,1.20
2023-03-13T03:39:41.856Z,1.30
2023-03-13T03:41:43.470Z,1.45
2023-03-13T03:43:45.765Z,1.27
2023-03-13T03:45:47.405Z,1.55
2023-03-13T03:47:49.151Z,1.38
2023-03-13T03:49:50.886Z,1.83
2023-03-13T03:51:52.674Z,1.55
2023-03-13T03:53:54.826Z,1.30
2023-03-13T03:55:56.506Z,2.00
2023-03-13T03:57:58.131Z,1.85
2023-03-13T03:59:59.749Z,2.05
2023-03-13T04:02:01.526Z,1.95
2023-03-13T04:04:03.208Z,2.45
2023-03-13T04:06:05.155Z,1.95
2023-03-13T04:08:07.664Z,1.90
2023-03-13T04:10:10.152Z,2.10
2023-03-13T04:12:11.791Z,1.98
2023-03-13T04:14:13.359Z,1.73
2023-03-13T04:16:15.046Z,2.28
2023-03-13T04:18:16.797Z,2.30
2023-03-13T04:20:18.679Z,2.60
2023-03-13T04:22:20.666Z,2.38
2023-03-13T04:24:22.614Z,2.45
2023-03-13T04:26:24.360Z,2.42
2023-03-13T04:28:26.142Z,1.85
2023-03-13T04:30:28.011Z,2.60
2023-03-13T04:32:29.794Z,2.15
2023-03-13T04:34:31.775Z,2.35
2023-03-13T04:36:33.453Z,2.08
2023-03-13T04:38:35.116Z,2.40
2023-03-13T04:40:36.753Z,2.05
2023-03-13T04:42:38.471Z,1.80
2023-03-13T04:44:42.421Z,1.88
2023-03-13T04:46:45.190Z,2.22
2023-03-13T04:48:46.992Z,2.22
2023-03-13T04:50:48.844Z,2.20
2023-03-13T04:52:53.340Z,1.90
2023-03-13T04:54:55.058Z,1.90
2023-03-13T04:56:56.731Z,1.40
2023-03-13T04:58:58.380Z,1.75
2023-03-13T05:01:00.162Z,1.92
2023-03-13T05:03:01.840Z,2.17
2023-03-13T05:05:04.100Z,1.52
2023-03-13T05:07:06.212Z,1.75
2023-03-13T05:09:07.922Z,1.92
2023-03-13T05:11:09.679Z,2.05
2023-03-13T05:13:11.357Z,1.85
2023-03-13T05:15:13.055Z,2.05
2023-03-13T05:17:14.918Z,2.08
2023-03-13T05:19:16.585Z,2.05
2023-03-13T05:21:18.277Z,1.60
2023-03-13T05:23:19.920Z,1.33
2023-03-13T05:25:21.558Z,1.55
2023-03-13T05:27:23.220Z,1.63
2023-03-13T05:29:24.909Z,1.38
2023-03-13T05:31:26.647Z,1.88
2023-03-13T05:33:28.388Z,1.42
2023-03-13T05:35:30.092Z,1.35
2023-03-13T05:37:32.012Z,1.00
2023-03-13T05:39:33.646Z,1.48
2023-03-13T05:41:35.469Z,1.70
2023-03-13T05:43:37.118Z,1.30
2023-03-13T05:45:38.770Z,1.30
2023-03-13T05:47:40.455Z,1.50
2023-03-13T05:49:42.088Z,1.50
2023-03-13T05:51:43.839Z,1.50
2023-03-13T05:53:45.457Z,1.35
2023-03-13T05:55:47.099Z,1.30
2023-03-13T05:57:49.133Z,1.42
2023-03-13T05:59:50.815Z,1.40
2023-03-13T06:01:55.216Z,1.10
2023-03-13T06:03:56.924Z,1.10
2023-03-13T06:06:13.348Z,1.35
2023-03-13T06:08:21.844Z,1.00
2023-03-13T06:10:23.649Z,1.00
2023-03-13T06:12:25.525Z,1.25
2023-03-13T06:14:36.142Z,1.40
2023-03-13T06:16:37.873Z,1.05
2023-03-13T06:18:39.590Z,1.30
2023-03-13T06:20:46.601Z,1.52
2023-03-13T06:22:48.750Z,1.05
2023-03-13T06:24:50.655Z,1.20
2023-03-13T06:26:52.497Z,1.38
2023-03-13T06:28:59.163Z,2.10
2023-03-13T06:31:02.275Z,1.17
2023-03-13T06:33:04.611Z,1.45
2023-03-13T06:35:07.166Z,1.27
2023-03-13T06:37:08.931Z,1.40
2023-03-13T06:39:11.709Z,1.30
2023-03-13T06:41:18.278Z,1.33
2023-03-13T06:43:22.946Z,1.90
2023-03-13T06:45:24.686Z,1.52
2023-03-13T06:47:26.452Z,1.70
2023-03-13T06:49:28.439Z,1.95
2023-03-13T06:51:30.928Z,1.60
2023-03-13T06:53:32.748Z,1.48
2023-03-13T06:55:39.979Z,1.98
2023-03-13T06:57:43.997Z,1.70
2023-03-13T06:59:45.756Z,1.80
2023-03-13T07:01:47.452Z,1.80
2023-03-13T07:04:03.943Z,2.47
2023-03-13T07:06:07.620Z,1.73
2023-03-13T07:08:09.596Z,2.72
2023-03-13T07:10:12.013Z,1.77
2023-03-13T07:12:24.813Z,1.52
2023-03-13T07:14:47.165Z,1.83
2023-03-13T07:17:10.052Z,2.03
2023-03-13T07:19:33.347Z,1.90
2023-03-13T07:21:54.657Z,1.95
2023-03-13T07:24:20.737Z,1.40
2023-03-13T07:26:22.531Z,1.65
2023-03-13T07:28:24.862Z,1.48
2023-03-13T07:30:26.863Z,1.80
2023-03-13T07:32:42.717Z,1.75
2023-03-13T07:35:13.065Z,1.77
2023-03-13T07:37:32.374Z,1.83
2023-03-13T07:39:43.826Z,1.50
2023-03-13T07:41:45.568Z,1.73
2023-03-13T07:43:47.609Z,1.90
2023-03-13T07:45:59.107Z,1.85
2023-03-13T07:48:06.624Z,1.63
2023-03-13T07:50:09.047Z,2.13
2023-03-13T07:52:10.740Z,2.30
2023-03-13T07:54:12.493Z,1.85
2023-03-13T07:56:16.476Z,1.60
2023-03-13T07:58:18.149Z,2.03
2023-03-13T08:00:20.343Z,1.98
2023-03-13T08:02:22.151Z,2.63
2023-03-13T08:04:23.874Z,2.75
2023-03-13T08:06:26.426Z,2.00
2023-03-13T08:08:28.710Z,1.95
2023-03-13T08:10:31.236Z,1.85
2023-03-13T08:12:32.973Z,2.75
2023-03-13T08:14:34.642Z,2.08
2023-03-13T08:16:36.798Z,2.13
2023-03-13T08:18:40.945Z,2.15
2023-03-13T08:20:44.614Z,2.20
2023-03-13T08:22:47.126Z,1.60
2023-03-13T08:24:48.823Z,2.08
2023-03-13T08:26:50.428Z,1.92
2023-03-13T08:28:57.208Z,1.95
2023-03-13T08:30:58.981Z,2.15
2023-03-13T08:33:00.788Z,1.70
2023-03-13T08:35:03.895Z,2.22
2023-03-13T08:37:05.629Z,1.80
2023-03-13T08:39:11.046Z,1.90
2023-03-13T08:41:20.603Z,1.83
2023-03-13T08:43:22.257Z,2.17
2023-03-13T08:45:23.919Z,2.13
2023-03-13T08:47:25.567Z,1.77
2023-03-13T08:49:27.199Z,1.60
2023-03-13T08:51:29.337Z,1.95
2023-03-13T08:53:31.825Z,1.98
2023-03-13T08:55:33.474Z,1.77
2023-03-13T08:57:35.077Z,2.03
2023-03-13T08:59:36.868Z,2.38
2023-03-13T09:01:38.523Z,1.92
2023-03-13T09:03:41.013Z,1.75
2023-03-13T09:05:55.314Z,1.63
2023-03-13T09:07:57.938Z,1.90
2023-03-13T09:09:59.623Z,2.60
2023-03-13T09:12:01.367Z,1.58
2023-03-13T09:14:03.374Z,1.90
2023-03-13T09:16:10.245Z,2.20
2023-03-13T09:18:11.973Z,1.70
2023-03-13T09:20:13.651Z,1.40
2023-03-13T09:22:15.570Z,1.58
2023-03-13T09:24:17.377Z,1.70
2023-03-13T09:26:22.796Z,2.03
2023-03-13T09:28:26.435Z,1.77
2023-03-13T09:30:28.126Z,2.00
2023-03-13T09:32:30.001Z,1.77
2023-03-13T09:34:32.121Z,1.77
2023-03-13T09:36:33.882Z,1.60
2023-03-13T09:38:36.141Z,1.52
2023-03-13T09:40:42.169Z,2.00
2023-03-13T09:42:55.914Z,1.83
2023-03-13T09:45:09.405Z,1.60
2023-03-13T09:47:29.202Z,1.45
2023-03-13T09:49:43.168Z,1.92
2023-03-13T09:51:48.254Z,1.83
2023-03-13T09:53:55.796Z,2.05
2023-03-13T09:55:57.810Z,1.50
2023-03-13T09:58:23.716Z,2.15
2023-03-13T10:00:30.278Z,1.70
2023-03-13T10:02:34.955Z,2.30
2023-03-13T10:04:44.812Z,2.10
2023-03-13T10:06:47.745Z,2.00
2023-03-13T10:08:49.459Z,1.60
2023-03-13T10:10:59.250Z,1.45
2023-03-13T10:13:10.828Z,1.45
2023-03-13T10:15:32.779Z,1.27
2023-03-13T10:17:37.351Z,1.10
2023-03-13T10:19:43.510Z,1.50
2023-03-13T10:21:48.271Z,1.33
2023-03-13T10:24:01.312Z,1.70
2023-03-13T10:26:02.955Z,1.30
2023-03-13T10:28:05.740Z,1.42
2023-03-13T10:30:30.778Z,1.48
2023-03-13T10:32:35.827Z,1.00
2023-03-13T10:35:00.592Z,1.30
2023-03-13T10:37:02.892Z,1.20
2023-03-13T10:39:09.007Z,1.52
2023-03-13T10:41:19.557Z,1.08
2023-03-13T10:43:24.932Z,1.25
2023-03-13T10:45:38.369Z,1.52
2023-03-13T10:47:40.041Z,1.10
2023-03-13T10:50:07.972Z,1.25
2023-03-13T10:53:03.592Z,0.95
2023-03-13T10:55:30.560Z,1.33
2023-03-13T10:57:42.301Z,1.13
2023-03-13T10:59:46.503Z,0.80
2023-03-13T11:01:48.785Z,0.80
2023-03-13T11:03:54.252Z,0.80
2023-03-13T11:06:05.855Z,0.80
2023-03-13T11:08:45.859Z,0.82
2023-03-13T11:11:15.612Z,1.17
2023-03-13T11:13:42.895Z,0.65
2023-03-13T11:15:58.927Z,0.70
2023-03-13T11:18:11.635Z,0.82
2023-03-13T11:20:23.658Z,0.70
2023-03-13T11:22:44.303Z,0.80
2023-03-13T11:24:50.572Z,0.70
2023-03-13T11:27:10.560Z,0.95
2023-03-13T11:29:44.685Z,0.57
2023-03-13T11:31:58.168Z,0.63
2023-03-13T11:34:15.885Z,0.63
2023-03-13T11:36:48.970Z,0.90
2023-03-13T11:39:11.778Z,0.70
2023-03-13T11:41:32.415Z,0.82
2023-03-13T11:43:54.852Z,0.82
2023-03-13T11:46:13.045Z,0.60
2023-03-13T11:48:54.029Z,0.82
2023-03-13T11:51:20.515Z,1.10
2023-03-13T11:54:06.765Z,0.80
2023-03-13T11:56:12.652Z,0.77
2023-03-13T11:58:20.142Z,0.80
2023-03-13T12:00:34.792Z,0.80
2023-03-13T12:03:02.811Z,0.70
2023-03-13T12:05:11.555Z,0.73
2023-03-13T12:07:54.335Z,0.70
2023-03-13T12:10:06.633Z,0.70
2023-03-13T12:13:06.082Z,0.63
2023-03-13T12:15:29.234Z,0.80
2023-03-13T12:17:36.132Z,0.70
2023-03-13T12:19:46.759Z,1.00
2023-03-13T12:21:53.903Z,0.70
2023-03-13T12:24:06.625Z,0.70
2023-03-13T12:26:22.287Z,0.80
2023-03-13T12:28:32.310Z,0.75
2023-03-13T12:30:40.237Z,0.85
2023-03-13T12:33:01.269Z,0.70
2023-03-13T12:35:15.634Z,0.80
2023-03-13T12:37:39.533Z,0.80
2023-03-13T12:40:09.436Z,0.70
2023-03-13T12:42:51.808Z,1.02
2023-03-13T12:44:54.412Z,0.80
2023-03-13T12:47:19.496Z,0.80
2023-03-13T12:49:47.728Z,0.70
2023-03-13T12:52:00.634Z,1.00
2023-03-13T12:54:29.417Z,0.73
2023-03-13T12:56:53.997Z,0.77
2023-03-13T12:59:06.836Z,0.80
2023-03-13T13:01:17.085Z,0.82
2023-03-13T13:03:31.840Z,0.80
2023-03-13T13:05:33.527Z,0.70
2023-03-13T13:07:55.349Z,1.08
2023-03-13T13:10:22.044Z,0.95
2023-03-13T13:12:26.557Z,0.85
2023-03-13T13:14:28.516Z,0.80
2023-03-13T13:16:30.574Z,0.85
2023-03-13T13:18:34.576Z,0.57
2023-03-13T13:20:40.448Z,0.80
2023-03-13T13:22:42.118Z,0.80
2023-03-13T13:24:51.929Z,0.75
2023-03-13T13:26:53.585Z,0.80
2023-03-13T13:28:59.537Z,0.70
2023-03-13T13:31:01.665Z,0.77
2023-03-13T13:33:19.061Z,0.73
2023-03-13T13:35:32.586Z,0.80
2023-03-13T13:37:34.954Z,0.60
2023-03-13T13:39:48.294Z,0.85
2023-03-13T13:41:50.418Z,0.60
2023-03-13T13:44:24.195Z,0.90
2023-03-13T13:46:33.327Z,1.08
2023-03-13T13:48:46.580Z,0.90
2023-03-13T13:51:24.268Z,0.60
2023-03-13T13:53:34.369Z,0.70
2023-03-13T13:55:38.952Z,0.68
2023-03-13T14:00:22.324Z,0.80
2023-03-13T14:02:38.433Z,0.90
2023-03-13T14:05:02.628Z,0.80
2023-03-13T14:07:05.999Z,0.50
2023-03-13T14:09:27.082Z,0.70
2023-03-13T14:11:34.227Z,0.60
2023-03-13T14:13:35.873Z,0.80
2023-03-13T14:15:42.827Z,0.60
2023-03-13T14:17:49.884Z,0.80
2023-03-13T14:19:51.614Z,0.40
2023-03-13T14:22:05.081Z,1.35
2023-03-13T14:24:13.818Z,0.75
2023-03-13T14:26:29.182Z,0.77
2023-03-13T14:28:30.767Z,0.80
2023-03-13T14:30:32.398Z,1.00
2023-03-13T14:32:34.080Z,0.60
2023-03-13T14:34:35.854Z,0.85
2023-03-13T14:36:47.508Z,1.40
2023-03-13T14:38:55.150Z,0.80
2023-03-13T14:40:57.066Z,0.73
2023-03-13T14:43:00.689Z,0.60
2023-03-13T14:45:15.867Z,0.80
2023-03-13T14:47:28.855Z,0.73
2023-03-13T14:49:32.687Z,0.70
2023-03-13T14:51:38.742Z,0.60
2023-03-13T14:53:40.388Z,0.70
2023-03-13T14:55:42.225Z,0.65
2023-03-13T14:57:55.959Z,0.60
2023-03-13T15:00:36.106Z,0.70
2023-03-13T15:02:39.015Z,0.70
2023-03-13T15:05:34.423Z,0.65
2023-03-13T15:07:47.805Z,0.80
2023-03-13T15:09:52.809Z,0.60
2023-03-13T15:11:56.758Z,0.50
2023-03-13T15:13:58.673Z,0.80
2023-03-13T15:16:00.924Z,0.68
2023-03-13T15:18:02.593Z,0.70
2023-03-13T15:20:09.596Z,0.50
2023-03-13T15:22:15.943Z,0.60
2023-03-13T15:24:19.362Z,0.85
2023-03-13T15:26:21.536Z,0.90
2023-03-13T15:28:24.360Z,0.95
2023-03-13T15:30:25.999Z,0.70
2023-03-13T15:32:34.156Z,2.05
2023-03-13T15:34:35.950Z,0.90
2023-03-13T15:36:39.130Z,0.98
2023-03-13T15:38:40.854Z,1.02
2023-03-13T15:40:47.432Z,1.30
2023-03-13T15:42:51.853Z,1.10
2023-03-13T15:44:53.503Z,1.73
2023-03-13T15:46:55.564Z,1.38
2023-03-13T15:48:57.360Z,0.82
2023-03-13T15:51:01.736Z,0.90
2023-03-13T15:53:04.099Z,1.42
2023-03-13T15:55:08.051Z,1.10
2023-03-13T15:57:13.111Z,1.00
2023-03-13T15:59:16.295Z,1.10
2023-03-13T16:01:18.498Z,1.15
2023-03-13T16:03:22.860Z,1.23
2023-03-13T16:05:24.483Z,1.23
2023-03-13T16:07:26.176Z,1.05
2023-03-13T16:09:27.783Z,1.10
2023-03-13T16:11:29.624Z,1.23
2023-03-13T16:13:31.575Z,1.00
2023-03-13T16:15:33.214Z,2.10
2023-03-13T16:17:34.933Z,1.30
2023-03-13T16:19:36.595Z,1.30
2023-03-13T16:21:40.387Z,1.13
2023-03-13T16:23:42.044Z,1.10
2023-03-13T16:25:47.480Z,1.23
2023-03-13T16:27:49.217Z,0.93
2023-03-13T16:29:50.857Z,1.17
2023-03-13T16:31:52.675Z,1.35
2023-03-13T16:33:55.209Z,1.17
2023-03-13T16:35:56.991Z,1.13
2023-03-13T16:37:58.762Z,1.42
2023-03-13T16:40:01.150Z,1.40
2023-03-13T16:42:02.788Z,0.93
2023-03-13T16:44:04.475Z,1.30
2023-03-13T16:46:19.624Z,1.00
2023-03-13T16:48:22.777Z,2.22
2023-03-13T16:50:36.143Z,1.23
2023-03-13T16:52:37.751Z,2.05
2023-03-13T16:54:39.312Z,1.25
2023-03-13T16:56:43.276Z,1.52
2023-03-13T16:58:45.108Z,1.80
2023-03-13T17:01:04.283Z,1.48
2023-03-13T17:03:06.999Z,1.00
2023-03-13T17:05:09.172Z,1.30
2023-03-13T17:07:17.766Z,1.73
2023-03-13T17:09:19.377Z,1.55
2023-03-13T17:11:22.009Z,1.48
2023-03-13T17:13:24.082Z,1.63
2023-03-13T17:15:27.139Z,1.38
2023-03-13T17:17:29.101Z,1.00
2023-03-13T17:19:31.235Z,1.10
2023-03-13T17:21:33.727Z,1.10
2023-03-13T17:23:35.527Z,1.50
2023-03-13T17:25:37.117Z,1.10
2023-03-13T17:27:39.755Z,1.10
2023-03-13T17:29:42.076Z,1.48
2023-03-13T17:31:43.784Z,1.42
2023-03-13T17:33:45.691Z,1.17
2023-03-13T17:35:47.437Z,1.35
2023-03-13T17:37:49.754Z,1.25
2023-03-13T17:39:51.502Z,1.35
2023-03-13T17:41:53.185Z,1.30
2023-03-13T17:43:55.037Z,1.10
2023-03-13T17:45:56.719Z,1.52
2023-03-13T17:47:58.378Z,1.40
2023-03-13T17:50:00.011Z,1.13
2023-03-13T17:52:01.699Z,1.50
2023-03-13T17:54:03.853Z,1.23
2023-03-13T17:56:22.158Z,1.10
2023-03-13T17:58:23.794Z,1.73
2023-03-13T18:00:30.382Z,1.30
2023-03-13T18:02:32.058Z,1.38
2023-03-13T18:04:33.740Z,1.63
2023-03-13T18:06:42.423Z,1.38
2023-03-13T18:08:44.124Z,1.35
2023-03-13T18:10:45.736Z,1.52
2023-03-13T18:12:48.661Z,1.42
2023-03-13T18:14:50.418Z,1.38
2023-03-13T18:16:57.154Z,2.00
2023-03-13T18:18:58.789Z,1.17
2023-03-13T18:21:00.405Z,1.30
2023-03-13T18:23:02.107Z,1.67
2023-03-13T18:25:03.901Z,1.63
2023-03-13T18:27:11.341Z,1.60
2023-03-13T18:29:19.352Z,1.40
2023-03-13T18:31:21.065Z,1.60
2023-03-13T18:33:22.730Z,1.95
2023-03-13T18:35:24.328Z,1.40
2023-03-13T18:37:30.886Z,1.40
2023-03-13T18:39:33.124Z,0.95
2023-03-13T18:41:35.691Z,0.93
2023-03-13T18:43:37.525Z,0.90
2023-03-13T18:45:39.331Z,1.17
2023-03-13T18:47:40.994Z,1.02
2023-03-13T18:49:42.607Z,1.15
2023-03-13T18:51:44.804Z,0.80
2023-03-13T18:53:46.921Z,1.00
2023-03-13T18:55:48.539Z,0.85
2023-03-13T18:57:50.435Z,1.17
2023-03-13T18:59:52.012Z,0.90
2023-03-13T19:01:54.981Z,1.17
2023-03-13T19:03:57.819Z,1.00
2023-03-13T19:06:01.344Z,1.15
2023-03-13T19:08:03.178Z,1.27
2023-03-13T19:10:24.721Z,1.05
2023-03-13T19:12:26.344Z,2.17
2023-03-13T19:14:27.909Z,0.80
2023-03-13T19:16:35.023Z,0.85
2023-03-13T19:18:36.650Z,1.00
2023-03-13T19:20:38.268Z,1.25
2023-03-13T19:22:39.939Z,1.52
2023-03-13T19:24:41.485Z,1.50
2023-03-13T19:26:46.092Z,0.82
2023-03-13T19:28:47.775Z,0.90
2023-03-13T19:30:49.426Z,0.82
2023-03-13T19:32:51.375Z,0.68
2023-03-13T19:34:53.013Z,0.90
2023-03-13T19:36:54.657Z,1.13
2023-03-13T19:38:56.276Z,1.15
2023-03-13T19:40:57.878Z,1.13
2023-03-13T19:42:59.501Z,1.17
2023-03-13T19:45:01.352Z,1.00
2023-03-13T19:47:04.334Z,1.10
2023-03-13T19:49:05.933Z,1.05
2023-03-13T19:51:07.637Z,1.00
2023-03-13T19:53:09.326Z,0.80
2023-03-13T19:55:11.700Z,1.00
2023-03-13T19:57:13.400Z,0.90
2023-03-13T19:59:20.026Z,2.58
2023-03-13T20:01:21.672Z,3.15
2023-03-13T20:03:24.063Z,2.88
2023-03-13T20:05:29.206Z,2.05
2023-03-13T20:07:32.566Z,1.67
2023-03-13T20:09:35.571Z,1.27
2023-03-13T20:11:38.791Z,1.20
2023-03-13T20:13:40.852Z,0.90
2023-03-13T20:15:42.578Z,0.73
2023-03-13T20:17:44.234Z,1.00
2023-03-13T20:19:45.829Z,0.93
2023-03-13T20:21:47.405Z,1.25
2023-03-13T20:23:50.165Z,0.90
2023-03-13T20:25:51.879Z,0.90
2023-03-13T20:27:53.606Z,0.90
2023-03-13T20:29:55.240Z,0.98
2023-03-13T20:32:00.345Z,1.13
2023-03-13T20:34:02.095Z,1.10
2023-03-13T20:36:06.997Z,0.98
2023-03-13T20:38:08.702Z,1.00
2023-03-13T20:40:11.088Z,0.80
2023-03-13T20:42:12.919Z,0.95
2023-03-13T20:44:14.480Z,0.90
2023-03-13T20:46:16.142Z,0.82
2023-03-13T20:48:18.320Z,1.00
2023-03-13T20:50:19.915Z,1.55
2023-03-13T20:52:21.548Z,0.80
2023-03-13T20:54:23.400Z,1.95
2023-03-13T20:56:25.067Z,1.58
2023-03-13T20:58:26.674Z,1.17
2023-03-13T21:00:28.263Z,1.40
2023-03-13T21:02:30.192Z,1.30
2023-03-13T21:04:31.990Z,1.10
2023-03-13T21:06:34.152Z,1.10
2023-03-13T21:08:37.656Z,1.15
2023-03-13T21:10:41.712Z,1.27
2023-03-13T21:12:43.416Z,0.88
2023-03-13T21:14:45.119Z,1.90
2023-03-13T21:16:46.818Z,1.50
2023-03-13T21:18:48.468Z,1.10
2023-03-13T21:20:50.048Z,1.17
2023-03-13T21:22:52.121Z,1.38
2023-03-13T21:24:53.773Z,1.00
2023-03-13T21:26:55.367Z,1.10
2023-03-13T21:28:57.328Z,0.90
2023-03-13T21:30:59.011Z,0.77
2023-03-13T21:33:00.791Z,0.70
2023-03-13T21:35:02.721Z,0.80
2023-03-13T21:37:04.365Z,1.00
2023-03-13T21:39:08.333Z,1.05
2023-03-13T21:41:11.559Z,0.63
2023-03-13T21:43:13.345Z,0.90
2023-03-13T21:45:14.977Z,0.60
2023-03-13T21:47:24.639Z,1.10
2023-03-13T21:49:26.272Z,0.80
2023-03-13T21:51:28.268Z,1.08
2023-03-13T21:53:30.092Z,0.80
2023-03-13T21:55:35.336Z,0.95
2023-03-13T21:57:37.026Z,0.90
2023-03-13T21:59:38.696Z,1.10
2023-03-13T22:01:42.302Z,0.80
2023-03-13T22:03:47.172Z,0.93
2023-03-13T22:05:49.090Z,0.90
2023-03-13T22:07:50.692Z,1.00
2023-03-13T22:09:52.279Z,0.98
2023-03-13T22:11:53.804Z,1.05
2023-03-13T22:13:55.484Z,1.10
2023-03-13T22:15:57.085Z,0.95
2023-03-13T22:17:58.894Z,1.10
2023-03-13T22:20:00.485Z,1.38
2023-03-13T22:22:02.116Z,0.95
2023-03-13T22:24:03.971Z,0.98
2023-03-13T22:26:05.831Z,0.95
2023-03-13T22:28:08.176Z,1.15
2023-03-13T22:30:10.953Z,0.98
2023-03-13T22:32:12.783Z,1.20
2023-03-13T22:34:14.386Z,1.20
2023-03-13T22:36:16.030Z,1.23
2023-03-13T22:38:18.349Z,1.10
2023-03-13T22:40:20.386Z,0.90
2023-03-13T22:42:22.714Z,1.15
2023-03-13T22:44:24.407Z,1.67
2023-03-13T22:46:26.142Z,0.77
2023-03-13T22:48:27.811Z,1.00
2023-03-13T22:50:29.464Z,1.13
2023-03-13T22:52:31.979Z,2.63
2023-03-13T22:54:33.634Z,0.90
2023-03-13T22:56:35.228Z,1.05
2023-03-13T22:58:37.303Z,1.02
2023-03-13T23:00:38.883Z,1.20
2023-03-13T23:02:40.501Z,1.08
2023-03-13T23:04:42.118Z,1.35
2023-03-13T23:06:43.746Z,0.90
2023-03-13T23:08:45.801Z,1.27
2023-03-13T23:10:47.904Z,0.95
2023-03-13T23:12:49.495Z,1.00
2023-03-13T23:14:51.873Z,1.15
2023-03-13T23:16:53.459Z,1.85
2023-03-13T23:18:55.137Z,1.25
2023-03-13T23:20:56.770Z,1.20
2023-03-13T23:22:58.569Z,3.33
2023-03-13T23:25:00.332Z,0.80
2023-03-13T23:27:02.152Z,0.98
2023-03-13T23:29:03.920Z,1.52
2023-03-13T23:31:13.973Z,1.00
2023-03-13T23:33:15.628Z,1.20
2023-03-13T23:35:17.530Z,1.50
2023-03-13T23:37:19.166Z,1.00
2023-03-13T23:39:20.769Z,1.17
2023-03-13T23:41:22.393Z,1.58
2023-03-13T23:43:24.051Z,1.48
2023-03-13T23:45:25.749Z,0.88
2023-03-13T23:47:28.480Z,1.00
2023-03-13T23:49:31.882Z,1.55
2023-03-13T23:51:33.520Z,1.13
2023-03-13T23:53:37.127Z,1.02
2023-03-13T23:55:38.741Z,1.20
2023-03-13T23:57:40.531Z,1.30
2023-03-13T23:59:42.175Z,1.20
